sensor_id;sensor_type;location;lat;lon;timestamp;pressure;altitude;pressure_sealevel;temperature;humidity
57799;BME280;43626;53.866;30.298;2024-01-15T00:03:18;998;;;0.3;74
57799;BME280;43626;53.866;30.298;2024-01-15T00:07:46;998;;;0.3;74.1
57799;BME280;43626;53.866;30.298;2024-01-15T00:23:18;998;;;0.3;74.2
57799;BME280;43626;53.866;30.298;2024-01-15T00:27:54;998;;;0.4;74.3
57799;BME280;43626;53.866;30.298;2024-01-15T00:33:02;997.9;;;0.3;74.3
57799;BME280;43626;53.866;30.298;2024-01-15T00:37:28;997.9;;;0.3;74.4
57799;BME280;43626;53.866;30.298;2024-01-15T00:42:36;997.9;;;0.3;74.6
57799;BME280;43626;53.866;30.298;2024-01-15T00:47:36;998;;;0.3;74.7
57799;BME280;43626;53.866;30.298;2024-01-15T00:52:36;998;;;0.3;74.8
57799;BME280;43626;53.866;30.298;2024-01-15T00:58:04;997.9;;;0.3;74.9
57799;BME280;43626;53.866;30.298;2024-01-15T01:03:04;997.9;;;0.4;74.9
57799;BME280;43626;53.866;30.298;2024-01-15T01:08:18;997.9;;;0.4;74.8
57799;BME280;43626;53.866;30.298;2024-01-15T01:12:44;997.9;;;0.4;74.8
57799;BME280;43626;53.866;30.298;2024-01-15T01:17:42;997.8;;;0.4;74.8
57799;BME280;43626;53.866;30.298;2024-01-15T01:23:18;997.8;;;0.4;74.8
57799;BME280;43626;53.866;30.298;2024-01-15T01:28:08;997.8;;;0.5;74.7
57799;BME280;43626;53.866;30.298;2024-01-15T01:32:28;997.9;;;0.5;74.8
57799;BME280;43626;53.866;30.298;2024-01-15T01:37:58;997.9;;;0.5;74.7
57799;BME280;43626;53.866;30.298;2024-01-15T01:42:48;997.9;;;0.5;74.7
57799;BME280;43626;53.866;30.298;2024-01-15T01:48:18;997.9;;;0.5;74.6
57799;BME280;43626;53.866;30.298;2024-01-15T01:52:52;997.9;;;0.5;74.4
57799;BME280;43626;53.866;30.298;2024-01-15T01:58:18;997.8;;;0.6;74.5
57799;BME280;43626;53.866;30.298;2024-01-15T02:02:28;997.8;;;0.6;74.4
57799;BME280;43626;53.866;30.298;2024-01-15T02:08:04;997.8;;;0.6;74.3
57799;BME280;43626;53.866;30.298;2024-01-15T02:12:28;997.8;;;0.7;74.2
57799;BME280;43626;53.866;30.298;2024-01-15T02:18:00;997.8;;;0.7;74.1
57799;BME280;43626;53.866;30.298;2024-01-15T02:22:28;997.8;;;0.7;74.1
57799;BME280;43626;53.866;30.298;2024-01-15T02:27:45;997.8;;;0.6;74.1
57799;BME280;43626;53.866;30.298;2024-01-15T02:32:28;997.8;;;0.6;74.2
57799;BME280;43626;53.866;30.298;2024-01-15T02:37:36;997.8;;;0.6;74.3
57799;BME280;43626;53.866;30.298;2024-01-15T02:43:16;997.8;;;0.6;74.2
57799;BME280;43626;53.866;30.298;2024-01-15T02:47:44;997.8;;;0.6;74.3
57799;BME280;43626;53.866;30.298;2024-01-15T02:53:19;997.9;;;0.7;74.3
57799;BME280;43626;53.866;30.298;2024-01-15T02:57:54;997.9;;;0.7;74.4
57799;BME280;43626;53.866;30.298;2024-01-15T03:03:08;997.9;;;0.7;74.5
57799;BME280;43626;53.866;30.298;2024-01-15T03:07:29;997.8;;;0.7;74.5
57799;BME280;43626;53.866;30.298;2024-01-15T03:12:38;997.8;;;0.7;74.6
57799;BME280;43626;53.866;30.298;2024-01-15T03:18:18;997.8;;;0.7;74.7
57799;BME280;43626;53.866;30.298;2024-01-15T03:23:19;997.8;;;0.7;74.8
57799;BME280;43626;53.866;30.298;2024-01-15T03:27:46;997.8;;;0.6;75
57799;BME280;43626;53.866;30.298;2024-01-15T03:33:18;997.7;;;0.6;75.1
57799;BME280;43626;53.866;30.298;2024-01-15T03:38:18;997.7;;;0.6;75.1
57799;BME280;43626;53.866;30.298;2024-01-15T03:43:04;997.7;;;0.6;75.1
57799;BME280;43626;53.866;30.298;2024-01-15T03:48:16;997.6;;;0.6;75.1
57799;BME280;43626;53.866;30.298;2024-01-15T03:52:28;997.6;;;0.7;75.3
57799;BME280;43626;53.866;30.298;2024-01-15T03:57:46;997.6;;;0.7;75.1
57799;BME280;43626;53.866;30.298;2024-01-15T04:02:28;997.6;;;0.7;75.1
57799;BME280;43626;53.866;30.298;2024-01-15T04:07:48;997.6;;;0.6;74.9
57799;BME280;43626;53.866;30.298;2024-01-15T04:12:54;997.6;;;0.6;75
57799;BME280;43626;53.866;30.298;2024-01-15T04:17:59;997.5;;;0.6;75
57799;BME280;43626;53.866;30.298;2024-01-15T04:22:43;997.5;;;0.6;74.9
57799;BME280;43626;53.866;30.298;2024-01-15T04:28:18;997.5;;;0.6;74.9
57799;BME280;43626;53.866;30.298;2024-01-15T04:33:05;997.5;;;0.6;75
57799;BME280;43626;53.866;30.298;2024-01-15T04:37:45;997.5;;;0.6;75.1
57799;BME280;43626;53.866;30.298;2024-01-15T04:42:48;997.5;;;0.6;75
57799;BME280;43626;53.866;30.298;2024-01-15T04:47:58;997.5;;;0.6;74.9
57799;BME280;43626;53.866;30.298;2024-01-15T04:53:08;997.5;;;0.7;74.8
57799;BME280;43626;53.866;30.298;2024-01-15T04:57:48;997.5;;;0.6;74.7
57799;BME280;43626;53.866;30.298;2024-01-15T05:03:06;997.5;;;0.6;74.7
57799;BME280;43626;53.866;30.298;2024-01-15T05:08:18;997.5;;;0.6;74.6
57799;BME280;43626;53.866;30.298;2024-01-15T05:13:19;997.5;;;0.6;74.5
57799;BME280;43626;53.866;30.298;2024-01-15T05:17:54;997.4;;;0.6;74.5
57799;BME280;43626;53.866;30.298;2024-01-15T05:23:19;997.4;;;0.6;74.1
57799;BME280;43626;53.866;30.298;2024-01-15T05:27:29;997.4;;;0.6;73.9
57799;BME280;43626;53.866;30.298;2024-01-15T05:32:29;997.4;;;0.6;73.9
57799;BME280;43626;53.866;30.298;2024-01-15T05:37:29;997.5;;;0.6;73.9
57799;BME280;43626;53.866;30.298;2024-01-15T05:42:49;997.5;;;0.7;73.8
57799;BME280;43626;53.866;30.298;2024-01-15T05:47:28;997.5;;;0.7;73.7
57799;BME280;43626;53.866;30.298;2024-01-15T05:52:28;997.6;;;0.7;73.5
57799;BME280;43626;53.866;30.298;2024-01-15T05:58:05;997.6;;;0.7;73.5
57799;BME280;43626;53.866;30.298;2024-01-15T06:03:19;997.7;;;0.6;73.3
57799;BME280;43626;53.866;30.298;2024-01-15T06:08:18;997.8;;;0.6;73.4
57799;BME280;43626;53.866;30.298;2024-01-15T06:12:45;997.8;;;0.5;73.4
57799;BME280;43626;53.866;30.298;2024-01-15T06:17:59;997.8;;;0.5;73.3
57799;BME280;43626;53.866;30.298;2024-01-15T06:23:19;997.7;;;0.5;73.3
57799;BME280;43626;53.866;30.298;2024-01-15T06:28:07;997.8;;;0.5;73.2
57799;BME280;43626;53.866;30.298;2024-01-15T06:32:49;997.9;;;0.5;73.1
57799;BME280;43626;53.866;30.298;2024-01-15T06:37:59;997.9;;;0.6;73.1
57799;BME280;43626;53.866;30.298;2024-01-15T06:42:49;997.9;;;0.6;73
57799;BME280;43626;53.866;30.298;2024-01-15T06:48:19;997.9;;;0.6;73
57799;BME280;43626;53.866;30.298;2024-01-15T06:52:30;997.9;;;0.6;73.1
57799;BME280;43626;53.866;30.298;2024-01-15T06:58:19;997.9;;;0.6;73.4
57799;BME280;43626;53.866;30.298;2024-01-15T07:02:29;997.8;;;0.7;73.4
57799;BME280;43626;53.866;30.298;2024-01-15T07:08:05;997.8;;;0.7;73.5
57799;BME280;43626;53.866;30.298;2024-01-15T07:12:51;997.9;;;0.7;73.5
57799;BME280;43626;53.866;30.298;2024-01-15T07:17:37;997.9;;;0.8;73
57799;BME280;43626;53.866;30.298;2024-01-15T07:22:38;997.9;;;0.8;72.8
57799;BME280;43626;53.866;30.298;2024-01-15T07:27:29;998;;;0.8;72.8
57799;BME280;43626;53.866;30.298;2024-01-15T07:32:49;998;;;0.8;72.7
57799;BME280;43626;53.866;30.298;2024-01-15T07:37:45;997.9;;;0.9;72.6
57799;BME280;43626;53.866;30.298;2024-01-15T07:43:19;997.9;;;0.9;72.4
57799;BME280;43626;53.866;30.298;2024-01-15T07:48:17;997.9;;;0.9;72.3
57799;BME280;43626;53.866;30.298;2024-01-15T07:53:19;997.9;;;0.9;72
57799;BME280;43626;53.866;30.298;2024-01-15T07:58:17;997.8;;;0.9;71.9
57799;BME280;43626;53.866;30.298;2024-01-15T08:03:09;997.8;;;0.8;71.9
57799;BME280;43626;53.866;30.298;2024-01-15T08:07:29;997.9;;;0.9;72
57799;BME280;43626;53.866;30.298;2024-01-15T08:12:59;997.8;;;0.9;71.9
57799;BME280;43626;53.866;30.298;2024-01-15T08:18:19;997.8;;;1;71.8
57799;BME280;43626;53.866;30.298;2024-01-15T08:23:19;997.7;;;1.1;71.6
57799;BME280;43626;53.866;30.298;2024-01-15T08:27:45;997.7;;;1.1;71.3
57799;BME280;43626;53.866;30.298;2024-01-15T08:33:17;997.7;;;1.2;71.2
57799;BME280;43626;53.866;30.298;2024-01-15T08:38:18;997.7;;;1.2;70.9
57799;BME280;43626;53.866;30.298;2024-01-15T08:43:03;997.7;;;1.2;70.9
57799;BME280;43626;53.866;30.298;2024-01-15T08:48:19;997.7;;;1.2;70.7
57799;BME280;43626;53.866;30.298;2024-01-15T08:52:37;997.7;;;1.3;70.6
57799;BME280;43626;53.866;30.298;2024-01-15T08:57:49;997.6;;;1.3;70.5
57799;BME280;43626;53.866;30.298;2024-01-15T09:02:37;997.6;;;1.3;70.3
57799;BME280;43626;53.866;30.298;2024-01-15T09:07:29;997.5;;;1.3;70.2
57799;BME280;43626;53.866;30.298;2024-01-15T09:12:29;997.5;;;1.3;70.3
57799;BME280;43626;53.866;30.298;2024-01-15T09:17:59;997.4;;;1.2;70.3
57799;BME280;43626;53.866;30.298;2024-01-15T09:22:29;997.4;;;1.3;70.4
57799;BME280;43626;53.866;30.298;2024-01-15T09:28:19;997.3;;;1.3;70.5
57799;BME280;43626;53.866;30.298;2024-01-15T09:33:05;997.2;;;1.3;70.4
57799;BME280;43626;53.866;30.298;2024-01-15T09:37:29;997.2;;;1.4;70.6
57799;BME280;43626;53.866;30.298;2024-01-15T09:42:37;997.1;;;1.4;70.6
57799;BME280;43626;53.866;30.298;2024-01-15T09:47:59;997.1;;;1.5;70.5
57799;BME280;43626;53.866;30.298;2024-01-15T09:53:09;997.1;;;1.5;70.4
57799;BME280;43626;53.866;30.298;2024-01-15T09:57:29;997.1;;;1.5;70.5
57799;BME280;43626;53.866;30.298;2024-01-15T10:02:55;997;;;1.5;70.6
57799;BME280;43626;53.866;30.298;2024-01-15T10:08:19;997;;;1.6;70.5
57799;BME280;43626;53.866;30.298;2024-01-15T10:13:17;997;;;1.6;70.5
57799;BME280;43626;53.866;30.298;2024-01-15T10:17:55;996.9;;;1.5;70.4
57799;BME280;43626;53.866;30.298;2024-01-15T10:23:07;996.8;;;1.5;70.5
57799;BME280;43626;53.866;30.298;2024-01-15T10:27:59;996.8;;;1.5;70.6
57799;BME280;43626;53.866;30.298;2024-01-15T10:32:29;996.8;;;1.4;70.6
57799;BME280;43626;53.866;30.298;2024-01-15T10:38:09;996.8;;;1.4;70.7
57799;BME280;43626;53.866;30.298;2024-01-15T10:42:29;996.8;;;1.3;70.9
57799;BME280;43626;53.866;30.298;2024-01-15T10:47:37;996.8;;;1.3;71.1
57799;BME280;43626;53.866;30.298;2024-01-15T10:52:37;996.8;;;1.3;71.3
57799;BME280;43626;53.866;30.298;2024-01-15T10:58:05;996.7;;;1.3;71.3
57799;BME280;43626;53.866;30.298;2024-01-15T11:03:19;996.7;;;1.4;71.1
57799;BME280;43626;53.866;30.298;2024-01-15T11:08:19;996.6;;;1.5;70.9
57799;BME280;43626;53.866;30.298;2024-01-15T11:12:45;996.6;;;1.5;70.5
57799;BME280;43626;53.866;30.298;2024-01-15T11:17:59;996.6;;;1.4;70.6
57799;BME280;43626;53.866;30.298;2024-01-15T11:23:20;996.6;;;1.4;70.6
57799;BME280;43626;53.866;30.298;2024-01-15T11:28:07;996.6;;;1.4;70.7
57799;BME280;43626;53.866;30.298;2024-01-15T11:32:49;996.6;;;1.4;70.7
57799;BME280;43626;53.866;30.298;2024-01-15T11:37:59;996.5;;;1.3;71
57799;BME280;43626;53.866;30.298;2024-01-15T11:42:59;996.5;;;1.2;71.4
57799;BME280;43626;53.866;30.298;2024-01-15T11:48:17;996.5;;;1.1;71.4
57799;BME280;43626;53.866;30.298;2024-01-15T11:52:55;996.4;;;1.1;71.4
57799;BME280;43626;53.866;30.298;2024-01-15T11:58:17;996.3;;;1.1;71.4
57799;BME280;43626;53.866;30.298;2024-01-15T12:02:53;996.2;;;1.1;71.3
57799;BME280;43626;53.866;30.298;2024-01-15T12:07:33;996.1;;;1.1;71.1
57799;BME280;43626;53.866;30.298;2024-01-15T12:12:32;996.1;;;1;70.9
57799;BME280;43626;53.866;30.298;2024-01-15T12:17:37;996;;;1;71
57799;BME280;43626;53.866;30.298;2024-01-15T12:22:45;996;;;0.9;71.2
57799;BME280;43626;53.866;30.298;2024-01-15T12:27:29;996;;;0.9;71.5
57799;BME280;43626;53.866;30.298;2024-01-15T12:32:29;996;;;0.9;71.6
57799;BME280;43626;53.866;30.298;2024-01-15T12:37:37;996;;;0.9;71.8
57799;BME280;43626;53.866;30.298;2024-01-15T12:42:41;995.9;;;0.9;72.1
57799;BME280;43626;53.866;30.298;2024-01-15T12:47:45;995.9;;;0.9;72
57799;BME280;43626;53.866;30.298;2024-01-15T12:53:17;995.9;;;0.9;71.7
57799;BME280;43626;53.866;30.298;2024-01-15T12:58:03;995.8;;;0.9;71.8
57799;BME280;43626;53.866;30.298;2024-01-15T13:03:17;995.8;;;0.9;71.8
57799;BME280;43626;53.866;30.298;2024-01-15T13:07:49;995.7;;;0.9;71.6
57799;BME280;43626;53.866;30.298;2024-01-15T13:12:59;995.7;;;0.9;71.4
57799;BME280;43626;53.866;30.298;2024-01-15T13:18:17;995.7;;;0.9;71.1
57799;BME280;43626;53.866;30.298;2024-01-15T13:22:59;995.7;;;0.8;71.1
57799;BME280;43626;53.866;30.298;2024-01-15T13:27:53;995.7;;;0.8;71
57799;BME280;43626;53.866;30.298;2024-01-15T13:33:17;995.6;;;0.7;71.1
57799;BME280;43626;53.866;30.298;2024-01-15T13:38:15;995.6;;;0.7;71.1
57799;BME280;43626;53.866;30.298;2024-01-15T13:43:01;995.7;;;0.7;71.4
57799;BME280;43626;53.866;30.298;2024-01-15T13:48:17;995.7;;;0.6;71.5
57799;BME280;43626;53.866;30.298;2024-01-15T13:52:37;995.6;;;0.6;71.6
57799;BME280;43626;53.866;30.298;2024-01-15T13:57:37;995.6;;;0.5;71.6
57799;BME280;43626;53.866;30.298;2024-01-15T14:02:29;995.6;;;0.5;71.7
57799;BME280;43626;53.866;30.298;2024-01-15T14:07:37;995.6;;;0.5;71.7
57799;BME280;43626;53.866;30.298;2024-01-15T14:13:09;995.7;;;0.4;71.7
57799;BME280;43626;53.866;30.298;2024-01-15T14:17:59;995.7;;;0.4;71.4
57799;BME280;43626;53.866;30.298;2024-01-15T14:22:45;995.7;;;0.4;71.3
57799;BME280;43626;53.866;30.298;2024-01-15T14:28:17;995.8;;;0.4;71.2
57799;BME280;43626;53.866;30.298;2024-01-15T14:32:31;995.8;;;0.4;71
57799;BME280;43626;53.866;30.298;2024-01-15T14:38:07;995.7;;;0.4;70.9
57799;BME280;43626;53.866;30.298;2024-01-15T14:42:45;995.7;;;0.4;70.8
57799;BME280;43626;53.866;30.298;2024-01-15T14:48:17;995.7;;;0.4;70.8
57799;BME280;43626;53.866;30.298;2024-01-15T14:53:17;995.8;;;0.3;70.8
57799;BME280;43626;53.866;30.298;2024-01-15T14:58:03;995.8;;;0.3;70.8
57799;BME280;43626;53.866;30.298;2024-01-15T15:03:17;995.7;;;0.3;70.8
57799;BME280;43626;53.866;30.298;2024-01-15T15:07:29;995.7;;;0.3;70.6
57799;BME280;43626;53.866;30.298;2024-01-15T15:12:29;995.7;;;0.3;70.5
57799;BME280;43626;53.866;30.298;2024-01-15T15:17:37;995.7;;;0.2;70.6
57799;BME280;43626;53.866;30.298;2024-01-15T15:22:29;995.6;;;0.2;71.8
57799;BME280;43626;53.866;30.298;2024-01-15T15:27:51;995.6;;;0.3;71.4
57799;BME280;43626;53.866;30.298;2024-01-15T15:33:17;995.7;;;0.3;71.6
57799;BME280;43626;53.866;30.298;2024-01-15T15:37:45;995.7;;;0.2;72
57799;BME280;43626;53.866;30.298;2024-01-15T15:43:17;995.7;;;0.3;72.1
57799;BME280;43626;53.866;30.298;2024-01-15T15:48:03;995.7;;;0.2;72.2
57799;BME280;43626;53.866;30.298;2024-01-15T15:52:45;995.7;;;0.2;72.2
57799;BME280;43626;53.866;30.298;2024-01-15T15:58:07;995.7;;;0.2;72.3
57799;BME280;43626;53.866;30.298;2024-01-15T16:02:51;995.7;;;0.2;72.4
57799;BME280;43626;53.866;30.298;2024-01-15T16:07:51;995.6;;;0.2;72.3
57799;BME280;43626;53.866;30.298;2024-01-15T16:12:41;995.6;;;0.2;72.2
57799;BME280;43626;53.866;30.298;2024-01-15T16:18:07;995.6;;;0.2;72.1
57799;BME280;43626;53.866;30.298;2024-01-15T16:23:03;995.5;;;0.2;72.2
57799;BME280;43626;53.866;30.298;2024-01-15T16:28:17;995.5;;;0.3;72
57799;BME280;43626;53.866;30.298;2024-01-15T16:32:29;995.5;;;0.2;72.2
57799;BME280;43626;53.866;30.298;2024-01-15T16:38:07;995.5;;;0.2;72.5
57799;BME280;43626;53.866;30.298;2024-01-15T16:42:53;995.4;;;0.1;72.7
57799;BME280;43626;53.866;30.298;2024-01-15T16:47:49;995.4;;;0.1;72.8
57799;BME280;43626;53.866;30.298;2024-01-15T16:52:53;995.4;;;0.1;72.8
57799;BME280;43626;53.866;30.298;2024-01-15T16:57:29;995.4;;;0.1;72.9
57799;BME280;43626;53.866;30.298;2024-01-15T17:02:37;995.5;;;0.1;73.1
57799;BME280;43626;53.866;30.298;2024-01-15T17:07:29;995.5;;;0.1;73.1
57799;BME280;43626;53.866;30.298;2024-01-15T17:12:33;995.5;;;0.1;73
57799;BME280;43626;53.866;30.298;2024-01-15T17:18:17;995.5;;;0;72.9
57799;BME280;43626;53.866;30.298;2024-01-15T17:23:17;995.4;;;0;72.8
57799;BME280;43626;53.866;30.298;2024-01-15T17:27:29;995.4;;;0.1;72.8
57799;BME280;43626;53.866;30.298;2024-01-15T17:32:59;995.4;;;0.1;72.7
57799;BME280;43626;53.866;30.298;2024-01-15T17:38:17;995.4;;;0.2;72.4
57799;BME280;43626;53.866;30.298;2024-01-15T17:43:07;995.4;;;0.3;72.2
57799;BME280;43626;53.866;30.298;2024-01-15T17:47:59;995.4;;;0.3;72
57799;BME280;43626;53.866;30.298;2024-01-15T17:52:59;995.4;;;0.3;72
57799;BME280;43626;53.866;30.298;2024-01-15T17:57:49;995.5;;;0.3;71.9
57799;BME280;43626;53.866;30.298;2024-01-15T18:03:17;995.5;;;0.3;71.6
57799;BME280;43626;53.866;30.298;2024-01-15T18:07:53;995.4;;;0.3;71.3
57799;BME280;43626;53.866;30.298;2024-01-15T18:13:09;995.5;;;0.3;71.3
57799;BME280;43626;53.866;30.298;2024-01-15T18:17:53;995.6;;;0.3;71.4
57799;BME280;43626;53.866;30.298;2024-01-15T18:22:47;995.6;;;0.3;71.5
57799;BME280;43626;53.866;30.298;2024-01-15T18:27:44;995.5;;;0.3;71.5
57799;BME280;43626;53.866;30.298;2024-01-15T18:32:29;995.5;;;0.3;71.7
57799;BME280;43626;53.866;30.298;2024-01-15T18:37:29;995.5;;;0.3;71.7
57799;BME280;43626;53.866;30.298;2024-01-15T18:42:29;995.5;;;0.2;71.9
57799;BME280;43626;53.866;30.298;2024-01-15T18:47:49;995.6;;;0.2;72
57799;BME280;43626;53.866;30.298;2024-01-15T18:52:45;995.5;;;0.2;72
57799;BME280;43626;53.866;30.298;2024-01-15T18:58:17;995.5;;;0.2;72.1
57799;BME280;43626;53.866;30.298;2024-01-15T19:02:37;995.5;;;0.2;72.1
57799;BME280;43626;53.866;30.298;2024-01-15T19:07:59;995.6;;;0.1;72.3
57799;BME280;43626;53.866;30.298;2024-01-15T19:12:39;995.5;;;0.1;72.1
57799;BME280;43626;53.866;30.298;2024-01-15T19:17:51;995.6;;;0.1;72.1
57799;BME280;43626;53.866;30.298;2024-01-15T19:22:29;995.6;;;0.1;71.8
57799;BME280;43626;53.866;30.298;2024-01-15T19:27:59;995.6;;;0.2;71.6
57799;BME280;43626;53.866;30.298;2024-01-15T19:33:15;995.6;;;0.2;71.4
57799;BME280;43626;53.866;30.298;2024-01-15T19:38:15;995.7;;;0.2;71.2
57799;BME280;43626;53.866;30.298;2024-01-15T19:42:51;995.8;;;0.3;71
57799;BME280;43626;53.866;30.298;2024-01-15T19:48:15;995.8;;;0.2;70.7
57799;BME280;43626;53.866;30.298;2024-01-15T19:52:29;995.8;;;0.2;70.7
57799;BME280;43626;53.866;30.298;2024-01-15T19:58:01;995.8;;;0.3;70.4
57799;BME280;43626;53.866;30.298;2024-01-15T20:02:51;995.8;;;0.3;70
57799;BME280;43626;53.866;30.298;2024-01-15T20:07:45;995.8;;;0.2;69.9
57799;BME280;43626;53.866;30.298;2024-01-15T20:12:29;995.8;;;0.2;69.7
57799;BME280;43626;53.866;30.298;2024-01-15T20:17:45;995.8;;;0.2;69.6
57799;BME280;43626;53.866;30.298;2024-01-15T20:22:37;995.8;;;0.2;69.7
57799;BME280;43626;53.866;30.298;2024-01-15T20:27:37;995.8;;;0.3;69.7
57799;BME280;43626;53.866;30.298;2024-01-15T20:33:13;995.8;;;0.3;69.8
57799;BME280;43626;53.866;30.298;2024-01-15T20:37:45;995.8;;;0.2;69.8
57799;BME280;43626;53.866;30.298;2024-01-15T20:43:15;995.8;;;0.2;69.9
57799;BME280;43626;53.866;30.298;2024-01-15T20:48:07;995.9;;;0.2;69.9
57799;BME280;43626;53.866;30.298;2024-01-15T20:53:05;995.9;;;0.2;69.8
57799;BME280;43626;53.866;30.298;2024-01-15T20:57:49;995.9;;;0.2;69.9
57799;BME280;43626;53.866;30.298;2024-01-15T21:02:59;995.9;;;0.2;69.6
57799;BME280;43626;53.866;30.298;2024-01-15T21:08:15;995.9;;;0.2;69.2
57799;BME280;43626;53.866;30.298;2024-01-15T21:13:15;995.9;;;0.2;69.2
57799;BME280;43626;53.866;30.298;2024-01-15T21:17:51;996;;;0.2;69.3
57799;BME280;43626;53.866;30.298;2024-01-15T21:23:15;995.9;;;0.2;69.4
57799;BME280;43626;53.866;30.298;2024-01-15T21:28:15;995.9;;;0.3;69.4
57799;BME280;43626;53.866;30.298;2024-01-15T21:33:01;995.9;;;0.3;69.3
57799;BME280;43626;53.866;30.298;2024-01-15T21:38:15;995.9;;;0.3;69.4
57799;BME280;43626;53.866;30.298;2024-01-15T21:42:29;996;;;0.3;69.3
57799;BME280;43626;53.866;30.298;2024-01-15T21:47:37;996;;;0.2;69.3
57799;BME280;43626;53.866;30.298;2024-01-15T21:52:37;996;;;0.2;69.4
57799;BME280;43626;53.866;30.298;2024-01-15T21:57:37;996;;;0.2;69.4
57799;BME280;43626;53.866;30.298;2024-01-15T22:02:37;996;;;0.2;69.5
57799;BME280;43626;53.866;30.298;2024-01-15T22:07:59;996;;;0.2;69.6
57799;BME280;43626;53.866;30.298;2024-01-15T22:12:45;996;;;0.2;69.4
57799;BME280;43626;53.866;30.298;2024-01-15T22:18:15;996;;;0.2;69.5
57799;BME280;43626;53.866;30.298;2024-01-15T22:22:53;995.9;;;0.2;69.5
57799;BME280;43626;53.866;30.298;2024-01-15T22:27:37;995.9;;;0.2;69.5
57799;BME280;43626;53.866;30.298;2024-01-15T22:32:29;995.9;;;0.2;69.4
57799;BME280;43626;53.866;30.298;2024-01-15T22:37:47;995.9;;;0.2;69.5
57799;BME280;43626;53.866;30.298;2024-01-15T22:43:05;995.9;;;0.2;69.5
57799;BME280;43626;53.866;30.298;2024-01-15T22:47:29;995.8;;;0.1;69.7
57799;BME280;43626;53.866;30.298;2024-01-15T22:53:05;995.8;;;0;70.2
57799;BME280;43626;53.866;30.298;2024-01-15T22:58:01;995.8;;;0;70.6
57799;BME280;43626;53.866;30.298;2024-01-15T23:03:15;995.9;;;-0.1;70.9
57799;BME280;43626;53.866;30.298;2024-01-15T23:07:51;995.9;;;-0.1;71.1
57799;BME280;43626;53.866;30.298;2024-01-15T23:13:05;995.9;;;-0.1;71.2
57799;BME280;43626;53.866;30.298;2024-01-15T23:17:51;995.8;;;-0.1;71.1
57799;BME280;43626;53.866;30.298;2024-01-15T23:22:41;995.8;;;-0.1;70.9
57799;BME280;43626;53.866;30.298;2024-01-15T23:27:51;995.7;;;0;70.7
57799;BME280;43626;53.866;30.298;2024-01-15T23:32:41;995.7;;;-0.1;70.6
57799;BME280;43626;53.866;30.298;2024-01-15T23:37:43;995.7;;;-0.1;70.5
57799;BME280;43626;53.866;30.298;2024-01-15T23:42:45;995.7;;;-0.1;70.4
57799;BME280;43626;53.866;30.298;2024-01-15T23:48:01;995.7;;;-0.1;70.3
57799;BME280;43626;53.866;30.298;2024-01-15T23:53:15;995.7;;;-0.1;70.1
57799;BME280;43626;53.866;30.298;2024-01-15T23:58:15;995.7;;;-0.1;69.9
